台北 の空港の天気 - METARとTAF

台湾桃園国際空港 ( RCTP / TPE ) - 台湾 台北市
飛行場実況気象(Metar)
観測時間07/16 14:30 CST (07/16 06:30 UTC)
風向・風速東 14m/s
視程10km以上
天気現象
少しの雲 雲底高度 610m
全天の4割程度の雲 雲底高度 6100m
気温35℃
湿度56%
気圧1002hPa
METARRCTP 160630Z 09027KT 9999 FEW020 SCT200 35/25 Q1002 WS ALL RWY NOSIG RMK A2960
過去の天気等 Google飛行場航空写真 Wunderground天気予報

過去48時間のMETAR

飛行場予報(TAF)
発表時間: 7/16 13:02 CST (7/16 05:02 UTC)
予報対象時間: 16日14時 CST ~ 17日20時 CST
風向・風速東 10m/s
視程10km以上
少しの雲 雲底高度 610m
全天の4割程度の雲 雲底高度 3960m
16日14時 CST ~ 16日18時 CST に一時的に
風向・風速東 13m/s
17日3時 CST ~ 17日8時 CST に一時的に
風向・風速東 6m/s
17日8時 CST ~ 17日10時 CST に徐々に
風向・風速東 13m/s
17日18時 CST ~ 17日20時 CST に徐々に
風向・風速東 8m/s
TAF RCTP 160502Z 1606/1712 08020KT 9999 FEW020 SCT130
TEMPO 1606/1610 08025KT
TEMPO 1619/1624 09012KT
BECMG 1700/1702 08025KT
BECMG 1710/1712 09015KT